createdAt,value
2017-09-05T00:00:28.990Z,10.60
2017-09-05T00:01:26.573Z,9.30
2017-09-05T00:02:23.864Z,10.30
2017-09-05T00:03:21.125Z,15.10
2017-09-05T00:04:18.398Z,9.30
2017-09-05T00:05:15.642Z,17.40
2017-09-05T00:06:12.982Z,10.00
2017-09-05T00:07:10.238Z,14.60
2017-09-05T00:08:07.685Z,12.20
2017-09-05T00:09:05.022Z,11.30
2017-09-05T00:10:02.382Z,10.10
2017-09-05T00:10:59.765Z,11.50
2017-09-05T00:11:57.182Z,14.90
2017-09-05T00:12:54.517Z,10.10
2017-09-05T00:13:51.949Z,10.40
2017-09-05T00:14:49.301Z,11.00
2017-09-05T00:15:46.685Z,9.90
2017-09-05T00:16:44.100Z,9.00
2017-09-05T00:17:41.470Z,9.00
2017-09-05T00:18:38.790Z,10.70
2017-09-05T00:19:36.198Z,11.90
2017-09-05T00:20:33.517Z,9.40
2017-09-05T00:21:30.980Z,10.60
2017-09-05T00:22:28.401Z,12.80
2017-09-05T00:23:25.766Z,9.60
2017-09-05T00:24:23.097Z,9.60
2017-09-05T00:25:20.501Z,8.80
2017-09-05T00:26:17.926Z,9.40
2017-09-05T00:27:15.286Z,11.60
2017-09-05T00:28:12.589Z,11.40
2017-09-05T00:29:09.935Z,11.80
2017-09-05T00:30:07.289Z,8.80
2017-09-05T00:31:04.557Z,12.90
2017-09-05T00:32:01.810Z,10.90
2017-09-05T00:32:59.077Z,9.80
2017-09-05T00:33:56.341Z,9.70
2017-09-05T00:34:53.647Z,12.30
2017-09-05T00:35:50.979Z,11.70
2017-09-05T00:36:48.318Z,11.20
2017-09-05T00:37:45.574Z,15.00
2017-09-05T00:38:42.839Z,9.70
2017-09-05T00:39:40.077Z,13.60
2017-09-05T00:40:37.372Z,12.50
2017-09-05T00:41:34.683Z,12.00
2017-09-05T00:42:32.030Z,9.20
2017-09-05T00:43:29.317Z,9.40
2017-09-05T00:44:26.599Z,10.60
2017-09-05T00:45:25.933Z,11.70
2017-09-05T00:46:25.246Z,12.30
2017-09-05T00:47:22.534Z,12.20
2017-09-05T00:48:19.781Z,12.30
2017-09-05T00:49:17.057Z,10.90
2017-09-05T00:50:14.309Z,10.50
2017-09-05T00:51:11.583Z,9.30
2017-09-05T00:52:08.862Z,10.10
2017-09-05T00:53:06.146Z,10.30
2017-09-05T00:54:03.396Z,9.90
2017-09-05T00:55:00.691Z,10.10
2017-09-05T00:55:57.956Z,11.20
2017-09-05T00:56:55.296Z,11.00
2017-09-05T00:57:52.582Z,9.50
2017-09-05T00:58:49.862Z,12.90
2017-09-05T00:59:47.136Z,12.30
2017-09-05T01:00:44.462Z,14.20
2017-09-05T01:01:41.697Z,12.70
2017-09-05T01:02:38.986Z,11.50
2017-09-05T01:03:36.237Z,10.80
2017-09-05T01:04:33.559Z,14.70
2017-09-05T01:05:30.810Z,15.80
2017-09-05T01:06:28.077Z,15.30
2017-09-05T01:07:25.358Z,12.80
2017-09-05T01:08:22.615Z,14.60
2017-09-05T01:09:19.899Z,11.90
2017-09-05T01:10:17.181Z,12.30
2017-09-05T01:11:14.459Z,11.20
2017-09-05T01:12:11.717Z,15.10
2017-09-05T01:13:09.029Z,11.80
2017-09-05T01:14:06.301Z,10.40
2017-09-05T01:15:05.623Z,11.60
2017-09-05T01:16:02.946Z,11.20
2017-09-05T01:17:00.242Z,14.30
2017-09-05T01:17:57.516Z,12.00
2017-09-05T01:18:54.878Z,11.00
2017-09-05T01:19:52.121Z,16.70
2017-09-05T01:20:49.385Z,18.40
2017-09-05T01:21:46.627Z,12.70
2017-09-05T01:22:43.893Z,13.00
2017-09-05T01:23:41.169Z,14.20
2017-09-05T01:24:38.425Z,15.50
2017-09-05T01:25:35.665Z,13.20
2017-09-05T01:26:32.953Z,17.40
2017-09-05T01:27:30.251Z,13.90
2017-09-05T01:28:27.551Z,12.30
2017-09-05T01:29:24.789Z,11.00
2017-09-05T01:30:22.082Z,12.30
2017-09-05T01:31:19.313Z,16.70
2017-09-05T01:32:16.579Z,13.10
2017-09-05T01:33:13.893Z,14.50
2017-09-05T01:34:11.147Z,12.40
2017-09-05T01:35:08.458Z,22.70
2017-09-05T01:36:05.727Z,12.50
2017-09-05T01:37:02.982Z,11.20
2017-09-05T01:38:00.242Z,17.60
2017-09-05T01:38:57.497Z,14.90
2017-09-05T01:39:54.766Z,12.60
2017-09-05T01:40:52.012Z,15.70
2017-09-05T01:41:49.293Z,13.00
2017-09-05T01:42:46.541Z,15.50
2017-09-05T01:43:43.839Z,11.10
2017-09-05T01:44:41.077Z,12.00
2017-09-05T01:45:38.349Z,14.20
2017-09-05T01:46:35.598Z,14.00
2017-09-05T01:47:32.883Z,13.90
2017-09-05T01:48:30.152Z,11.50
2017-09-05T01:49:27.450Z,13.80
2017-09-05T01:50:24.702Z,13.40
2017-09-05T01:51:21.977Z,18.80
2017-09-05T01:52:20.067Z,14.50
2017-09-05T01:53:17.333Z,13.40
2017-09-05T01:54:14.617Z,12.90
2017-09-05T01:55:11.889Z,14.60
2017-09-05T01:56:09.133Z,14.50
2017-09-05T01:57:06.409Z,17.60
2017-09-05T01:58:03.649Z,15.00
2017-09-05T01:59:00.962Z,13.60
2017-09-05T01:59:58.207Z,15.60
2017-09-05T02:00:55.454Z,16.00
2017-09-05T02:01:52.706Z,12.10
2017-09-05T02:02:49.978Z,17.20
2017-09-05T02:03:47.217Z,16.60
2017-09-05T02:04:44.490Z,17.50
2017-09-05T02:05:41.729Z,12.80
2017-09-05T02:06:38.973Z,14.50
2017-09-05T02:07:36.227Z,14.10
2017-09-05T02:08:33.509Z,19.50
2017-09-05T02:09:30.770Z,12.70
2017-09-05T02:10:28.029Z,12.30
2017-09-05T02:11:25.287Z,14.90
2017-09-05T02:12:22.577Z,15.60
2017-09-05T02:13:19.859Z,16.90
2017-09-05T02:14:17.151Z,21.20
2017-09-05T02:15:14.444Z,12.60
2017-09-05T02:16:11.785Z,12.70
2017-09-05T02:17:09.006Z,12.60
2017-09-05T02:18:06.286Z,12.80
2017-09-05T02:19:03.535Z,15.00
2017-09-05T02:20:00.814Z,13.40
2017-09-05T02:20:58.081Z,15.60
2017-09-05T02:21:55.373Z,19.30
2017-09-05T02:22:52.617Z,13.50
2017-09-05T02:23:49.888Z,14.00
2017-09-05T02:24:47.153Z,14.50
2017-09-05T02:25:44.425Z,12.70
2017-09-05T02:26:41.730Z,13.60
2017-09-05T02:27:39.064Z,17.70
2017-09-05T02:28:36.309Z,13.50
2017-09-05T02:29:33.602Z,11.90
2017-09-05T02:30:30.962Z,14.70
2017-09-05T02:31:28.246Z,14.30
2017-09-05T02:32:25.498Z,12.30
2017-09-05T02:33:22.764Z,15.20
2017-09-05T02:34:20.005Z,13.40
2017-09-05T02:35:17.303Z,15.20
2017-09-05T02:36:14.564Z,16.00
2017-09-05T02:37:11.847Z,14.10
2017-09-05T02:38:09.099Z,13.10
2017-09-05T02:39:06.386Z,15.80
2017-09-05T02:40:03.679Z,16.00
2017-09-05T02:41:00.977Z,12.60
2017-09-05T02:41:58.248Z,17.70
2017-09-05T02:42:55.506Z,15.10
2017-09-05T02:43:52.765Z,13.30
2017-09-05T02:44:50.130Z,20.00
2017-09-05T02:45:47.391Z,14.00
2017-09-05T02:46:44.692Z,14.30
2017-09-05T02:47:41.954Z,15.30
2017-09-05T02:48:39.220Z,14.40
2017-09-05T02:49:36.474Z,14.20
2017-09-05T02:50:33.770Z,13.90
2017-09-05T02:51:31.042Z,14.80
2017-09-05T02:52:28.322Z,13.80
2017-09-05T02:53:25.567Z,12.60
2017-09-05T02:54:22.847Z,13.40
2017-09-05T02:55:20.091Z,12.10
2017-09-05T02:56:17.396Z,12.20
2017-09-05T02:57:14.647Z,15.50
2017-09-05T02:58:11.932Z,12.50
2017-09-05T02:59:09.193Z,12.00
2017-09-05T03:00:06.795Z,12.50
2017-09-05T03:01:04.394Z,9.80
2017-09-05T03:02:01.875Z,14.60
2017-09-05T03:02:59.170Z,11.50
2017-09-05T03:03:56.449Z,17.20
2017-09-05T03:04:53.708Z,12.00
2017-09-05T03:05:51.122Z,11.10
2017-09-05T03:06:48.373Z,12.00
2017-09-05T03:07:45.748Z,17.90
2017-09-05T03:08:43.226Z,14.40
2017-09-05T03:09:40.755Z,19.50
2017-09-05T03:10:38.063Z,11.90
2017-09-05T03:11:35.347Z,16.40
2017-09-05T03:12:32.602Z,15.20
2017-09-05T03:13:29.871Z,13.70
2017-09-05T03:14:27.417Z,12.00
2017-09-05T03:15:24.812Z,11.30
2017-09-05T03:16:22.089Z,12.00
2017-09-05T03:17:19.378Z,10.90
2017-09-05T03:18:16.630Z,12.90
2017-09-05T03:19:14.238Z,11.30
2017-09-05T03:20:11.615Z,14.10
2017-09-05T03:21:08.913Z,11.80
2017-09-05T03:22:06.142Z,9.90
2017-09-05T03:23:03.410Z,13.80
2017-09-05T03:24:00.743Z,15.70
2017-09-05T03:24:58.086Z,11.20
2017-09-05T03:25:55.361Z,10.20
2017-09-05T03:26:52.698Z,13.20
2017-09-05T03:27:49.962Z,14.80
2017-09-05T03:28:47.230Z,11.20
2017-09-05T03:29:44.523Z,10.10
2017-09-05T03:30:41.797Z,11.30
2017-09-05T03:31:39.073Z,12.70
2017-09-05T03:32:36.370Z,11.80
2017-09-05T03:33:33.613Z,11.50
2017-09-05T03:34:30.901Z,10.00
2017-09-05T03:35:28.159Z,13.50
2017-09-05T03:36:25.472Z,11.50
2017-09-05T03:37:22.719Z,12.70
2017-09-05T03:38:19.991Z,12.90
2017-09-05T03:39:17.218Z,13.30
2017-09-05T03:40:14.480Z,10.20
2017-09-05T03:41:11.718Z,13.40
2017-09-05T03:42:08.994Z,12.60
2017-09-05T03:43:06.233Z,11.30
2017-09-05T03:44:03.507Z,12.50
2017-09-05T03:45:00.798Z,10.80
2017-09-05T03:45:58.142Z,9.50
2017-09-05T03:46:55.358Z,13.40
2017-09-05T03:47:52.638Z,11.10
2017-09-05T03:48:49.894Z,13.00
2017-09-05T03:49:47.185Z,10.80
2017-09-05T03:50:44.458Z,12.00
2017-09-05T03:51:41.742Z,11.50
2017-09-05T03:52:39.022Z,10.90
2017-09-05T03:53:36.278Z,10.10
2017-09-05T03:54:33.513Z,11.40
2017-09-05T03:55:30.752Z,10.60
2017-09-05T03:56:27.990Z,13.80
2017-09-05T03:57:25.268Z,10.80
2017-09-05T03:58:22.509Z,10.80
2017-09-05T03:59:19.756Z,9.80
2017-09-05T04:00:17.052Z,10.00
2017-09-05T04:01:14.359Z,11.10
2017-09-05T04:02:11.635Z,11.00
2017-09-05T04:03:08.932Z,9.10
2017-09-05T04:04:06.178Z,10.20
2017-09-05T04:05:03.453Z,10.80
2017-09-05T04:06:00.701Z,9.30
2017-09-05T04:06:57.977Z,9.40
2017-09-05T04:07:55.226Z,11.20
2017-09-05T04:08:52.502Z,9.60
2017-09-05T04:09:49.751Z,12.10
2017-09-05T04:10:47.021Z,10.30
2017-09-05T04:11:44.273Z,10.20
2017-09-05T04:12:41.550Z,9.40
2017-09-05T04:13:38.822Z,13.30
2017-09-05T04:14:36.100Z,9.70
2017-09-05T04:15:33.353Z,10.90
2017-09-05T04:16:30.633Z,10.20
2017-09-05T04:17:27.872Z,12.10
2017-09-05T04:18:25.161Z,13.50
2017-09-05T04:19:22.416Z,11.90
2017-09-05T04:20:19.681Z,10.60
2017-09-05T04:21:16.942Z,9.70
2017-09-05T04:22:14.229Z,10.30
2017-09-05T04:23:11.481Z,9.40
2017-09-05T04:24:08.755Z,10.90
2017-09-05T04:25:06.008Z,9.60
2017-09-05T04:26:03.340Z,10.70
2017-09-05T04:27:00.626Z,11.70
2017-09-05T04:27:57.921Z,10.20
2017-09-05T04:28:55.162Z,12.60
2017-09-05T04:29:52.426Z,9.50
2017-09-05T04:30:49.644Z,11.80
2017-09-05T04:31:46.909Z,9.80
2017-09-05T04:32:44.150Z,9.90
2017-09-05T04:33:41.445Z,12.90
2017-09-05T04:34:38.698Z,8.90
2017-09-05T04:35:35.957Z,10.70
2017-09-05T04:36:33.197Z,8.90
2017-09-05T04:37:30.462Z,9.80
2017-09-05T04:38:27.727Z,9.70
2017-09-05T04:39:25.001Z,9.90
2017-09-05T04:40:22.223Z,10.60
2017-09-05T04:41:19.485Z,10.90
2017-09-05T04:42:16.758Z,11.30
2017-09-05T04:43:14.024Z,10.00
2017-09-05T04:44:11.281Z,8.90
2017-09-05T04:45:08.539Z,10.90
2017-09-05T04:46:05.773Z,10.90
2017-09-05T04:47:03.034Z,11.20
2017-09-05T04:48:00.273Z,10.90
2017-09-05T04:48:57.738Z,12.80
2017-09-05T04:49:54.990Z,10.40
2017-09-05T04:50:52.777Z,9.40
2017-09-05T04:51:50.017Z,9.70
2017-09-05T04:52:47.303Z,14.10
2017-09-05T04:53:44.545Z,10.20
2017-09-05T04:54:41.820Z,10.90
2017-09-05T04:55:39.058Z,9.90
2017-09-05T04:56:36.306Z,9.60
2017-09-05T04:57:33.540Z,11.20
2017-09-05T04:58:30.796Z,14.80
2017-09-05T04:59:28.046Z,10.00
2017-09-05T05:00:25.334Z,18.30
2017-09-05T05:01:22.565Z,10.60
2017-09-05T05:02:19.848Z,12.90
2017-09-05T05:03:17.095Z,9.20
2017-09-05T05:04:14.362Z,10.20
2017-09-05T05:05:11.597Z,10.40
2017-09-05T05:06:08.868Z,11.90
2017-09-05T05:07:06.107Z,13.20
2017-09-05T05:08:03.397Z,9.60
2017-09-05T05:09:00.643Z,9.80
2017-09-05T05:09:58.021Z,9.90
2017-09-05T05:10:55.269Z,9.70
2017-09-05T05:11:52.520Z,11.50
2017-09-05T05:12:49.751Z,9.60
2017-09-05T05:13:47.018Z,9.40
2017-09-05T05:14:44.370Z,10.40
2017-09-05T05:15:41.646Z,10.70
2017-09-05T05:16:39.041Z,12.30
2017-09-05T05:17:36.307Z,11.10
2017-09-05T05:18:33.559Z,12.00
2017-09-05T05:19:30.847Z,10.40
2017-09-05T05:20:28.073Z,9.90
2017-09-05T05:21:30.433Z,9.90
2017-09-05T05:22:32.876Z,9.90
2017-09-05T05:23:35.402Z,9.80
2017-09-05T05:24:32.690Z,10.50
2017-09-05T05:25:29.926Z,10.00
2017-09-05T05:26:27.238Z,11.40
2017-09-05T05:27:24.498Z,10.40
2017-09-05T05:28:21.760Z,12.00
2017-09-05T05:29:18.998Z,11.90
2017-09-05T05:30:16.285Z,12.00
2017-09-05T05:31:13.518Z,11.80
2017-09-05T05:32:10.789Z,11.30
2017-09-05T05:33:08.223Z,12.20
2017-09-05T05:34:05.496Z,11.10
2017-09-05T05:35:02.792Z,10.50
2017-09-05T05:36:00.099Z,9.20
2017-09-05T05:36:57.377Z,9.60
2017-09-05T05:37:54.668Z,11.60
2017-09-05T05:38:51.910Z,10.60
2017-09-05T05:39:49.176Z,11.20
2017-09-05T05:40:46.447Z,11.00
2017-09-05T05:41:43.698Z,10.40
2017-09-05T05:42:40.937Z,11.30
2017-09-05T05:43:38.201Z,9.60
2017-09-05T05:44:35.427Z,11.00
2017-09-05T05:45:32.736Z,10.70
2017-09-05T05:46:29.994Z,11.30
2017-09-05T05:47:27.276Z,12.20
2017-09-05T05:48:29.607Z,16.00
2017-09-05T05:49:26.869Z,8.70
2017-09-05T05:50:24.131Z,9.70
2017-09-05T05:51:21.402Z,10.50
2017-09-05T05:52:18.632Z,14.30
2017-09-05T05:53:15.885Z,18.40
2017-09-05T05:54:13.138Z,18.00
2017-09-05T05:55:10.421Z,10.30
2017-09-05T05:56:07.683Z,10.00
2017-09-05T05:57:04.949Z,10.00
2017-09-05T05:58:02.189Z,10.70
2017-09-05T05:58:59.466Z,10.90
2017-09-05T05:59:56.741Z,9.10
2017-09-05T06:00:54.024Z,10.00
2017-09-05T06:01:51.270Z,10.10
2017-09-05T06:02:48.542Z,12.40
2017-09-05T06:03:45.794Z,9.90
2017-09-05T06:04:43.071Z,11.80
2017-09-05T06:05:40.329Z,11.10
2017-09-05T06:06:37.633Z,15.10
2017-09-05T06:07:34.873Z,11.20
2017-09-05T06:08:32.168Z,11.50
2017-09-05T06:09:29.435Z,10.70
2017-09-05T06:10:26.705Z,12.60
2017-09-05T06:11:23.977Z,11.10
2017-09-05T06:12:21.237Z,14.40
2017-09-05T06:13:18.482Z,12.10
2017-09-05T06:14:15.821Z,12.40
2017-09-05T06:15:13.065Z,11.70
2017-09-05T06:16:10.354Z,16.30
2017-09-05T06:17:07.600Z,13.00
2017-09-05T06:18:04.897Z,12.70
2017-09-05T06:19:02.184Z,12.60
2017-09-05T06:19:59.471Z,12.00
2017-09-05T06:20:56.765Z,11.00
2017-09-05T06:21:54.045Z,12.90
2017-09-05T06:22:51.300Z,13.70
2017-09-05T06:23:48.596Z,12.70
2017-09-05T06:24:45.870Z,12.20
2017-09-05T06:25:43.126Z,11.80
2017-09-05T06:26:40.414Z,13.00
2017-09-05T06:27:37.708Z,13.50
2017-09-05T06:28:34.961Z,18.50
2017-09-05T06:29:32.243Z,12.80
2017-09-05T06:30:29.472Z,13.10
2017-09-05T06:31:26.795Z,15.20
2017-09-05T06:32:24.646Z,13.00
2017-09-05T06:33:21.940Z,14.80
2017-09-05T06:34:19.249Z,14.00
2017-09-05T06:35:16.559Z,13.40
2017-09-05T06:36:13.843Z,14.10
2017-09-05T06:37:11.138Z,12.20
2017-09-05T06:38:08.403Z,14.00
2017-09-05T06:39:05.708Z,12.70
2017-09-05T06:40:02.948Z,13.60
2017-09-05T06:41:00.223Z,12.40
2017-09-05T06:41:57.499Z,11.70
2017-09-05T06:42:54.792Z,15.50
2017-09-05T06:43:52.082Z,13.20
2017-09-05T06:44:49.346Z,16.40
2017-09-05T06:45:46.602Z,14.80
2017-09-05T06:46:43.874Z,18.30
2017-09-05T06:47:41.130Z,17.10
2017-09-05T06:48:38.489Z,19.20
2017-09-05T06:49:35.783Z,18.00
2017-09-05T06:50:33.038Z,19.00
2017-09-05T06:51:30.294Z,15.10
2017-09-05T06:52:27.581Z,19.60
2017-09-05T06:53:24.821Z,18.20
2017-09-05T06:54:22.069Z,17.80
2017-09-05T06:55:19.305Z,18.70
2017-09-05T06:56:16.570Z,17.40
2017-09-05T06:57:13.826Z,17.50
2017-09-05T06:58:11.140Z,19.80
2017-09-05T06:59:08.390Z,16.70
2017-09-05T07:00:05.678Z,18.90
2017-09-05T07:01:02.902Z,20.90
2017-09-05T07:02:00.201Z,22.30
2017-09-05T07:02:57.462Z,21.00
2017-09-05T07:03:54.746Z,21.20
2017-09-05T07:04:52.002Z,18.70
2017-09-05T07:05:49.286Z,24.30
2017-09-05T07:06:46.543Z,21.60
2017-09-05T07:07:43.842Z,22.70
2017-09-05T07:08:41.143Z,22.10
2017-09-05T07:09:38.431Z,24.60
2017-09-05T07:10:35.688Z,22.60
2017-09-05T07:11:32.994Z,24.20
2017-09-05T07:12:30.281Z,27.50
2017-09-05T07:13:27.644Z,24.50
2017-09-05T07:14:24.894Z,20.10
2017-09-05T07:15:22.158Z,22.30
2017-09-05T07:16:19.402Z,24.80
2017-09-05T07:17:16.688Z,31.00
2017-09-05T07:18:13.957Z,22.50
2017-09-05T07:19:11.209Z,21.60
2017-09-05T07:20:08.455Z,27.30
2017-09-05T07:21:05.697Z,30.70
2017-09-05T07:22:03.265Z,22.80
2017-09-05T07:23:00.576Z,26.10
2017-09-05T07:23:57.850Z,28.40
2017-09-05T07:24:55.185Z,23.00
2017-09-05T07:25:52.508Z,22.70
2017-09-05T07:26:49.903Z,24.70
2017-09-05T07:27:47.255Z,25.00
2017-09-05T07:28:44.612Z,24.00
2017-09-05T07:29:41.966Z,24.80
2017-09-05T07:30:39.353Z,24.70
2017-09-05T07:31:36.625Z,23.50
2017-09-05T07:32:33.926Z,22.30
2017-09-05T07:33:31.239Z,25.60
2017-09-05T07:34:28.567Z,24.50
2017-09-05T07:35:25.826Z,23.10
2017-09-05T07:36:23.170Z,21.20
2017-09-05T07:37:20.518Z,25.10
2017-09-05T07:38:17.897Z,22.90
2017-09-05T07:39:15.261Z,24.70
2017-09-05T07:40:12.513Z,24.30
2017-09-05T07:41:09.926Z,24.20
2017-09-05T07:42:07.220Z,29.60
2017-09-05T07:43:04.485Z,23.30
2017-09-05T07:44:01.815Z,29.00
2017-09-05T07:44:59.081Z,32.30
2017-09-05T07:45:56.477Z,30.60
2017-09-05T07:46:53.922Z,27.50
2017-09-05T07:47:51.213Z,29.60
2017-09-05T07:48:48.509Z,25.10
2017-09-05T07:49:45.798Z,28.20
2017-09-05T07:50:43.068Z,24.00
2017-09-05T07:51:40.402Z,25.40
2017-09-05T07:52:37.706Z,24.30
2017-09-05T07:53:35.098Z,25.10
2017-09-05T07:54:32.533Z,26.50
2017-09-05T07:55:29.878Z,28.00
2017-09-05T07:56:27.240Z,26.50
2017-09-05T07:57:24.590Z,25.60
2017-09-05T07:58:21.946Z,23.20
2017-09-05T07:59:19.283Z,30.10
2017-09-05T08:00:16.758Z,28.50
2017-09-05T08:01:14.156Z,29.20
2017-09-05T08:02:11.610Z,23.70
2017-09-05T08:03:08.983Z,25.80
2017-09-05T08:04:06.329Z,29.90
2017-09-05T08:05:03.664Z,27.70
2017-09-05T08:06:00.972Z,23.10
2017-09-05T08:06:58.368Z,22.50
2017-09-05T08:07:55.777Z,26.00
2017-09-05T08:08:53.204Z,29.00
2017-09-05T08:09:50.540Z,22.60
2017-09-05T08:10:47.941Z,26.50
2017-09-05T08:11:45.265Z,25.50
2017-09-05T08:12:42.676Z,25.70
2017-09-05T08:13:39.972Z,26.10
2017-09-05T08:14:37.509Z,22.70
2017-09-05T08:15:34.793Z,26.40
2017-09-05T08:16:32.072Z,27.10
2017-09-05T08:17:29.377Z,25.30
2017-09-05T08:18:26.707Z,31.20
2017-09-05T08:19:24.130Z,24.10
2017-09-05T08:20:21.445Z,25.60
2017-09-05T08:21:18.755Z,26.50
2017-09-05T08:22:16.055Z,21.10
2017-09-05T08:23:13.338Z,24.80
2017-09-05T08:24:10.679Z,23.80
2017-09-05T08:25:07.987Z,23.00
2017-09-05T08:26:05.322Z,22.60
2017-09-05T08:27:02.642Z,42.50
2017-09-05T08:27:59.960Z,29.90
2017-09-05T08:28:57.277Z,23.50
2017-09-05T08:29:54.602Z,23.10
2017-09-05T08:30:51.941Z,27.00
2017-09-05T08:31:49.217Z,23.20
2017-09-05T08:32:46.519Z,20.10
2017-09-05T08:33:43.834Z,28.10
2017-09-05T08:34:41.091Z,22.60
2017-09-05T08:35:38.429Z,21.30
2017-09-05T08:36:35.687Z,26.20
2017-09-05T08:37:32.970Z,23.20
2017-09-05T08:38:30.249Z,23.90
2017-09-05T08:39:27.585Z,24.30
2017-09-05T08:40:24.898Z,28.80
2017-09-05T08:41:22.209Z,23.30
2017-09-05T08:42:19.506Z,25.70
2017-09-05T08:43:16.799Z,27.80
2017-09-05T08:44:14.067Z,21.90
2017-09-05T08:45:11.351Z,22.20
2017-09-05T08:46:08.672Z,19.80
2017-09-05T08:47:06.009Z,22.60
2017-09-05T08:48:03.278Z,22.50
2017-09-05T08:49:00.537Z,19.20
2017-09-05T08:49:57.807Z,21.40
2017-09-05T08:50:55.105Z,26.50
2017-09-05T08:51:52.350Z,22.00
2017-09-05T08:52:49.633Z,25.40
2017-09-05T08:53:46.894Z,24.50
2017-09-05T08:54:44.173Z,23.80
2017-09-05T08:55:41.546Z,26.40
2017-09-05T08:56:38.868Z,25.00
2017-09-05T08:57:38.258Z,25.00
2017-09-05T08:58:35.517Z,26.80
2017-09-05T08:59:32.773Z,23.40
2017-09-05T09:00:30.044Z,23.80
2017-09-05T09:01:27.293Z,24.20
2017-09-05T09:02:25.012Z,26.50
2017-09-05T09:03:22.316Z,23.80
2017-09-05T09:04:19.627Z,25.20
2017-09-05T09:05:16.882Z,23.60
2017-09-05T09:06:14.208Z,24.00
2017-09-05T09:07:11.493Z,29.40
2017-09-05T09:08:08.869Z,30.20
2017-09-05T09:09:06.204Z,22.30
2017-09-05T09:10:03.514Z,26.90
2017-09-05T09:11:00.813Z,21.10
2017-09-05T09:11:58.074Z,21.50
2017-09-05T09:12:55.346Z,21.00
2017-09-05T09:13:52.627Z,23.20
2017-09-05T09:14:49.941Z,20.80
2017-09-05T09:15:47.267Z,20.70
2017-09-05T09:16:44.599Z,22.20
2017-09-05T09:17:42.091Z,23.30
2017-09-05T09:18:39.353Z,23.00
2017-09-05T09:19:36.623Z,21.10
2017-09-05T09:20:33.928Z,20.20
2017-09-05T09:21:31.206Z,24.40
2017-09-05T09:22:28.550Z,20.10
2017-09-05T09:23:25.840Z,19.60
2017-09-05T09:24:23.117Z,19.10
2017-09-05T09:25:20.408Z,19.90
2017-09-05T09:26:17.707Z,22.80
2017-09-05T09:27:15.091Z,21.20
2017-09-05T09:28:12.361Z,18.10
2017-09-05T09:29:09.657Z,28.60
2017-09-05T09:30:06.932Z,17.80
2017-09-05T09:31:04.211Z,18.70
2017-09-05T09:32:02.578Z,18.70
2017-09-05T09:32:59.859Z,20.00
2017-09-05T09:33:57.118Z,21.00
2017-09-05T09:34:54.447Z,18.50
2017-09-05T09:35:51.694Z,24.10
2017-09-05T09:36:49.006Z,16.70
2017-09-05T09:37:46.286Z,20.10
2017-09-05T09:38:43.591Z,22.30
2017-09-05T09:39:40.815Z,20.80
2017-09-05T09:40:38.078Z,21.00
2017-09-05T09:41:35.319Z,19.30
2017-09-05T09:42:32.618Z,21.00
2017-09-05T09:43:29.899Z,18.20
2017-09-05T09:44:27.182Z,16.90
2017-09-05T09:45:24.439Z,20.10
2017-09-05T09:46:21.722Z,20.00
2017-09-05T09:47:19.028Z,23.70
2017-09-05T09:48:16.313Z,20.00
2017-09-05T09:49:13.597Z,22.60
2017-09-05T09:50:10.907Z,17.30
2017-09-05T09:51:08.206Z,20.80
2017-09-05T09:52:05.494Z,21.40
2017-09-05T09:53:02.811Z,17.70
2017-09-05T09:54:00.062Z,24.30
2017-09-05T09:54:57.327Z,16.60
2017-09-05T09:55:54.657Z,17.50
2017-09-05T09:56:51.924Z,22.30
2017-09-05T09:57:49.247Z,25.80
2017-09-05T09:58:46.514Z,17.80
2017-09-05T09:59:43.795Z,20.00
2017-09-05T10:00:41.130Z,17.40
2017-09-05T10:01:38.461Z,18.90
2017-09-05T10:02:35.811Z,19.10
2017-09-05T10:03:33.210Z,18.80
2017-09-05T10:04:30.495Z,19.90
2017-09-05T10:05:30.646Z,19.30
2017-09-05T10:06:27.926Z,16.50
2017-09-05T10:07:25.244Z,17.70
2017-09-05T10:08:22.656Z,17.30
2017-09-05T10:09:19.962Z,19.10
2017-09-05T10:10:17.286Z,16.80
2017-09-05T10:11:14.609Z,22.20
2017-09-05T10:12:11.900Z,17.90
2017-09-05T10:13:09.195Z,21.60
2017-09-05T10:14:06.483Z,18.60
2017-09-05T10:15:03.737Z,20.40
2017-09-05T10:16:01.011Z,19.90
2017-09-05T10:16:58.264Z,20.40
2017-09-05T10:17:55.602Z,19.10
2017-09-05T10:18:52.844Z,22.50
2017-09-05T10:19:50.112Z,18.40
2017-09-05T10:20:47.366Z,19.10
2017-09-05T10:21:44.626Z,17.40
2017-09-05T10:22:41.858Z,20.20
2017-09-05T10:23:39.142Z,22.40
2017-09-05T10:24:36.386Z,20.60
2017-09-05T10:25:33.726Z,19.40
2017-09-05T10:26:30.974Z,21.80
2017-09-05T10:27:28.262Z,18.90
2017-09-05T10:28:25.549Z,19.90
2017-09-05T10:29:22.806Z,20.20
2017-09-05T10:30:20.056Z,23.30
2017-09-05T10:31:17.349Z,21.10
2017-09-05T10:32:14.605Z,19.30
2017-09-05T10:33:11.881Z,18.80
2017-09-05T10:34:09.136Z,20.10
2017-09-05T10:35:06.392Z,22.00
2017-09-05T10:36:03.626Z,18.30
2017-09-05T10:37:00.885Z,18.30
2017-09-05T10:37:58.113Z,19.80
2017-09-05T10:38:55.390Z,21.50
2017-09-05T10:39:52.647Z,16.90
2017-09-05T10:40:49.917Z,16.30
2017-09-05T10:41:47.189Z,19.80
2017-09-05T10:42:44.463Z,15.60
2017-09-05T10:43:41.730Z,17.70
2017-09-05T10:44:39.038Z,15.20
2017-09-05T10:45:36.292Z,20.40
2017-09-05T10:46:33.554Z,18.20
2017-09-05T10:47:30.811Z,21.40
2017-09-05T10:48:28.062Z,18.80
2017-09-05T10:49:25.328Z,17.10
2017-09-05T10:50:22.602Z,18.80
2017-09-05T10:51:19.837Z,20.60
2017-09-05T10:52:17.099Z,19.10
2017-09-05T10:53:14.337Z,21.00
2017-09-05T10:54:11.647Z,17.50
2017-09-05T10:55:09.061Z,17.20
2017-09-05T10:56:06.353Z,20.70
2017-09-05T10:57:03.594Z,15.90
2017-09-05T10:58:00.854Z,14.70
2017-09-05T10:58:58.128Z,14.20
2017-09-05T10:59:55.397Z,12.60
2017-09-05T11:00:52.667Z,11.50
2017-09-05T11:01:49.941Z,10.60
2017-09-05T11:02:47.162Z,18.00
2017-09-05T11:03:44.426Z,10.70
2017-09-05T11:04:41.681Z,13.80
2017-09-05T11:05:38.958Z,12.20
2017-09-05T11:06:36.196Z,12.30
2017-09-05T11:07:33.463Z,11.10
2017-09-05T11:08:30.711Z,8.70
2017-09-05T11:09:28.005Z,9.50
2017-09-05T11:10:25.217Z,8.80
2017-09-05T11:11:22.515Z,11.00
2017-09-05T11:12:19.759Z,10.10
2017-09-05T11:13:17.001Z,8.80
2017-09-05T11:14:14.228Z,10.60
2017-09-05T11:15:11.555Z,9.80
2017-09-05T11:16:08.813Z,10.10
2017-09-05T11:17:06.073Z,9.80
2017-09-05T11:18:03.318Z,10.20
2017-09-05T11:19:01.210Z,9.60
2017-09-05T11:19:58.473Z,9.90
2017-09-05T11:20:55.730Z,12.20
2017-09-05T11:21:53.018Z,10.00
2017-09-05T11:22:50.275Z,10.30
2017-09-05T11:23:47.498Z,12.80
2017-09-05T11:24:44.773Z,9.40
2017-09-05T11:25:42.025Z,8.90
2017-09-05T11:26:39.304Z,7.90
2017-09-05T11:27:36.617Z,10.40
2017-09-05T11:28:33.905Z,8.60
2017-09-05T11:29:31.203Z,9.50
2017-09-05T11:30:28.486Z,6.80
2017-09-05T11:31:26.061Z,9.20
2017-09-05T11:32:23.322Z,7.70
2017-09-05T11:33:20.545Z,8.10
2017-09-05T11:34:17.811Z,7.00
2017-09-05T11:35:15.073Z,6.90
2017-09-05T11:36:12.301Z,7.50
2017-09-05T11:37:09.589Z,7.70
2017-09-05T11:38:06.893Z,12.40
2017-09-05T11:39:04.130Z,6.20
2017-09-05T11:40:01.378Z,5.80
2017-09-05T11:40:58.678Z,7.40
2017-09-05T11:41:55.958Z,5.70
2017-09-05T11:42:53.232Z,6.50
2017-09-05T11:43:50.500Z,6.70
2017-09-05T11:44:47.735Z,9.00
2017-09-05T11:45:45.051Z,5.60
2017-09-05T11:46:42.306Z,11.10
2017-09-05T11:47:39.573Z,9.50
2017-09-05T11:48:36.809Z,6.70
2017-09-05T11:49:34.096Z,6.60
2017-09-05T11:50:31.358Z,7.20
2017-09-05T11:51:28.664Z,6.30
2017-09-05T11:52:25.910Z,5.70
2017-09-05T11:53:23.186Z,7.70
2017-09-05T11:54:20.450Z,6.30
2017-09-05T11:55:17.755Z,6.60
2017-09-05T11:56:15.026Z,6.50
2017-09-05T11:57:12.290Z,8.40
2017-09-05T11:58:11.595Z,5.60
2017-09-05T11:59:08.906Z,5.90
2017-09-05T12:00:06.154Z,6.20
2017-09-05T12:01:03.454Z,5.90
2017-09-05T12:02:00.697Z,7.50
2017-09-05T12:02:57.960Z,6.20
2017-09-05T12:03:55.189Z,7.00
2017-09-05T12:04:52.467Z,7.80
2017-09-05T12:05:49.714Z,8.60
2017-09-05T12:06:47.005Z,6.90
2017-09-05T12:07:44.294Z,7.70
2017-09-05T12:08:41.590Z,9.30
2017-09-05T12:09:38.810Z,5.40
2017-09-05T12:10:36.094Z,6.20
2017-09-05T12:11:33.361Z,5.70
2017-09-05T12:12:30.601Z,5.30
2017-09-05T12:13:27.848Z,6.10
2017-09-05T12:14:25.116Z,5.40
2017-09-05T12:15:22.333Z,6.50
2017-09-05T12:16:19.617Z,6.60
2017-09-05T12:17:16.857Z,6.10
2017-09-05T12:18:14.114Z,5.90
2017-09-05T12:19:11.341Z,6.30
2017-09-05T12:20:08.618Z,5.40
2017-09-05T12:21:06.109Z,5.50
2017-09-05T12:22:03.416Z,6.10